sensor_id;sensor_type;location;lat;lon;timestamp;P1;durP1;ratioP1;P2;durP2;ratioP2
6787;SDS011;3431;47.966;10.268;2023-04-03T00:00:05;5.20;;;4.20;;
6787;SDS011;3431;47.966;10.268;2023-04-03T00:00:29;4.50;;;4.10;;
6787;SDS011;3431;47.966;10.268;2023-04-03T00:00:51;4.75;;;4.35;;
6787;SDS011;3431;47.966;10.268;2023-04-03T00:01:12;4.72;;;4.32;;
6787;SDS011;3431;47.966;10.268;2023-04-03T00:01:35;4.18;;;3.88;;
6787;SDS011;3431;47.966;10.268;2023-04-03T00:01:58;4.80;;;4.13;;
6787;SDS011;3431;47.966;10.268;2023-04-03T00:02:20;5.15;;;3.92;;
6787;SDS011;3431;47.966;10.268;2023-04-03T00:02:42;4.63;;;4.15;;
6787;SDS011;3431;47.966;10.268;2023-04-03T00:03:03;4.28;;;3.88;;
6787;SDS011;3431;47.966;10.268;2023-04-03T00:03:25;4.35;;;3.95;;
6787;SDS011;3431;47.966;10.268;2023-04-03T00:03:47;4.78;;;4.38;;
6787;SDS011;3431;47.966;10.268;2023-04-03T00:04:09;4.45;;;4.05;;
6787;SDS011;3431;47.966;10.268;2023-04-03T00:04:31;4.75;;;4.25;;
6787;SDS011;3431;47.966;10.268;2023-04-03T00:04:52;4.53;;;4.13;;
6787;SDS011;3431;47.966;10.268;2023-04-03T00:05:15;4.15;;;3.85;;
6787;SDS011;3431;47.966;10.268;2023-04-03T00:05:36;4.28;;;3.88;;
6787;SDS011;3431;47.966;10.268;2023-04-03T00:05:58;4.50;;;4.10;;
6787;SDS011;3431;47.966;10.268;2023-04-03T00:06:19;4.72;;;4.32;;
6787;SDS011;3431;47.966;10.268;2023-04-03T00:06:41;5.05;;;4.55;;
6787;SDS011;3431;47.966;10.268;2023-04-03T00:07:04;4.60;;;4.10;;
6787;SDS011;3431;47.966;10.268;2023-04-03T00:07:25;4.53;;;4.13;;
6787;SDS011;3431;47.966;10.268;2023-04-03T00:07:47;4.57;;;4.18;;
6787;SDS011;3431;47.966;10.268;2023-04-03T00:08:10;4.65;;;4.25;;
6787;SDS011;3431;47.966;10.268;2023-04-03T00:08:32;4.50;;;4.10;;
6787;SDS011;3431;47.966;10.268;2023-04-03T00:08:54;4.60;;;4.20;;
6787;SDS011;3431;47.966;10.268;2023-04-03T00:09:16;4.50;;;4.10;;
6787;SDS011;3431;47.966;10.268;2023-04-03T00:09:37;4.22;;;3.92;;
6787;SDS011;3431;47.966;10.268;2023-04-03T00:09:59;4.35;;;4.05;;
6787;SDS011;3431;47.966;10.268;2023-04-03T00:10:21;4.97;;;4.40;;
6787;SDS011;3431;47.966;10.268;2023-04-03T00:10:43;4.70;;;4.30;;
6787;SDS011;3431;47.966;10.268;2023-04-03T00:11:05;4.53;;;4.13;;
6787;SDS011;3431;47.966;10.268;2023-04-03T00:11:27;4.28;;;3.88;;
6787;SDS011;3431;47.966;10.268;2023-04-03T00:11:48;4.00;;;3.65;;
6787;SDS011;3431;47.966;10.268;2023-04-03T00:12:11;4.32;;;3.92;;
6787;SDS011;3431;47.966;10.268;2023-04-03T00:12:32;4.40;;;4.00;;
6787;SDS011;3431;47.966;10.268;2023-04-03T00:12:54;4.72;;;4.32;;
6787;SDS011;3431;47.966;10.268;2023-04-03T00:13:15;4.33;;;3.93;;
6787;SDS011;3431;47.966;10.268;2023-04-03T00:13:38;4.32;;;4.00;;
6787;SDS011;3431;47.966;10.268;2023-04-03T00:14:00;4.35;;;4.05;;
6787;SDS011;3431;47.966;10.268;2023-04-03T00:14:22;4.30;;;3.90;;
6787;SDS011;3431;47.966;10.268;2023-04-03T00:14:44;3.95;;;3.65;;
6787;SDS011;3431;47.966;10.268;2023-04-03T00:15:07;4.05;;;3.75;;
6787;SDS011;3431;47.966;10.268;2023-04-03T00:15:29;4.20;;;3.80;;
6787;SDS011;3431;47.966;10.268;2023-04-03T00:15:51;4.20;;;3.80;;
6787;SDS011;3431;47.966;10.268;2023-04-03T00:16:13;4.72;;;4.18;;
6787;SDS011;3431;47.966;10.268;2023-04-03T00:16:37;4.78;;;4.25;;
6787;SDS011;3431;47.966;10.268;2023-04-03T00:16:58;4.30;;;3.90;;
6787;SDS011;3431;47.966;10.268;2023-04-03T00:17:20;4.35;;;3.97;;
6787;SDS011;3431;47.966;10.268;2023-04-03T00:17:41;4.80;;;4.40;;
6787;SDS011;3431;47.966;10.268;2023-04-03T00:18:04;4.72;;;4.32;;
6787;SDS011;3431;47.966;10.268;2023-04-03T00:18:26;4.72;;;4.32;;
6787;SDS011;3431;47.966;10.268;2023-04-03T00:18:47;4.47;;;4.07;;
6787;SDS011;3431;47.966;10.268;2023-04-03T00:19:09;4.22;;;3.90;;
6787;SDS011;3431;47.966;10.268;2023-04-03T00:19:33;4.50;;;4.10;;
6787;SDS011;3431;47.966;10.268;2023-04-03T00:19:54;4.22;;;3.92;;
6787;SDS011;3431;47.966;10.268;2023-04-03T00:20:16;4.20;;;3.88;;
6787;SDS011;3431;47.966;10.268;2023-04-03T00:20:38;4.32;;;3.92;;
6787;SDS011;3431;47.966;10.268;2023-04-03T00:21:00;4.80;;;4.40;;
6787;SDS011;3431;47.966;10.268;2023-04-03T00:21:22;4.93;;;4.53;;
6787;SDS011;3431;47.966;10.268;2023-04-03T00:21:44;4.80;;;4.40;;
6787;SDS011;3431;47.966;10.268;2023-04-03T00:22:06;4.03;;;3.72;;
6787;SDS011;3431;47.966;10.268;2023-04-03T00:22:27;4.43;;;4.03;;
6787;SDS011;3431;47.966;10.268;2023-04-03T00:22:49;4.47;;;4.07;;
6787;SDS011;3431;47.966;10.268;2023-04-03T00:23:12;4.55;;;4.13;;
6787;SDS011;3431;47.966;10.268;2023-04-03T00:23:33;4.53;;;3.85;;
6787;SDS011;3431;47.966;10.268;2023-04-03T00:23:55;4.40;;;3.90;;
6787;SDS011;3431;47.966;10.268;2023-04-03T00:24:17;4.13;;;3.75;;
6787;SDS011;3431;47.966;10.268;2023-04-03T00:24:39;4.68;;;4.10;;
6787;SDS011;3431;47.966;10.268;2023-04-03T00:25:01;4.28;;;3.88;;
6787;SDS011;3431;47.966;10.268;2023-04-03T00:25:23;4.82;;;3.60;;
6787;SDS011;3431;47.966;10.268;2023-04-03T00:25:45;3.97;;;3.67;;
6787;SDS011;3431;47.966;10.268;2023-04-03T00:26:07;4.30;;;3.90;;
6787;SDS011;3431;47.966;10.268;2023-04-03T00:26:29;4.43;;;4.03;;
6787;SDS011;3431;47.966;10.268;2023-04-03T00:26:50;4.17;;;3.80;;
6787;SDS011;3431;47.966;10.268;2023-04-03T00:27:12;4.25;;;3.85;;
6787;SDS011;3431;47.966;10.268;2023-04-03T00:27:36;4.88;;;4.00;;
6787;SDS011;3431;47.966;10.268;2023-04-03T00:27:58;4.85;;;3.92;;
6787;SDS011;3431;47.966;10.268;2023-04-03T00:28:20;4.88;;;3.83;;
6787;SDS011;3431;47.966;10.268;2023-04-03T00:28:42;4.18;;;3.88;;
6787;SDS011;3431;47.966;10.268;2023-04-03T00:29:04;4.30;;;3.90;;
6787;SDS011;3431;47.966;10.268;2023-04-03T00:29:27;4.60;;;4.20;;
6787;SDS011;3431;47.966;10.268;2023-04-03T00:29:49;4.68;;;4.20;;
6787;SDS011;3431;47.966;10.268;2023-04-03T00:30:11;4.35;;;3.95;;
6787;SDS011;3431;47.966;10.268;2023-04-03T00:30:35;4.38;;;3.97;;
6787;SDS011;3431;47.966;10.268;2023-04-03T00:30:58;4.53;;;4.13;;
6787;SDS011;3431;47.966;10.268;2023-04-03T00:31:19;4.20;;;3.88;;
6787;SDS011;3431;47.966;10.268;2023-04-03T00:31:42;4.10;;;3.58;;
6787;SDS011;3431;47.966;10.268;2023-04-03T00:32:04;4.43;;;4.07;;
6787;SDS011;3431;47.966;10.268;2023-04-03T00:32:26;4.72;;;4.32;;
6787;SDS011;3431;47.966;10.268;2023-04-03T00:32:48;4.35;;;3.95;;
6787;SDS011;3431;47.966;10.268;2023-04-03T00:33:10;4.10;;;3.70;;
6787;SDS011;3431;47.966;10.268;2023-04-03T00:33:32;4.95;;;4.05;;
6787;SDS011;3431;47.966;10.268;2023-04-03T00:33:55;4.60;;;4.20;;
6787;SDS011;3431;47.966;10.268;2023-04-03T00:34:17;4.28;;;3.88;;
6787;SDS011;3431;47.966;10.268;2023-04-03T00:34:39;4.43;;;4.03;;
6787;SDS011;3431;47.966;10.268;2023-04-03T00:35:01;4.53;;;4.13;;
6787;SDS011;3431;47.966;10.268;2023-04-03T00:35:24;4.20;;;3.80;;
6787;SDS011;3431;47.966;10.268;2023-04-03T00:35:46;4.35;;;3.95;;
6787;SDS011;3431;47.966;10.268;2023-04-03T00:36:09;3.88;;;3.53;;
6787;SDS011;3431;47.966;10.268;2023-04-03T00:36:31;4.40;;;4.00;;
6787;SDS011;3431;47.966;10.268;2023-04-03T00:36:54;4.03;;;3.72;;
6787;SDS011;3431;47.966;10.268;2023-04-03T00:37:15;3.88;;;3.58;;
6787;SDS011;3431;47.966;10.268;2023-04-03T00:37:37;4.13;;;3.72;;
6787;SDS011;3431;47.966;10.268;2023-04-03T00:37:58;4.10;;;3.80;;
6787;SDS011;3431;47.966;10.268;2023-04-03T00:38:20;3.90;;;3.60;;
6787;SDS011;3431;47.966;10.268;2023-04-03T00:38:43;4.00;;;3.70;;
6787;SDS011;3431;47.966;10.268;2023-04-03T00:39:05;4.70;;;4.30;;
6787;SDS011;3431;47.966;10.268;2023-04-03T00:39:26;4.38;;;3.97;;
6787;SDS011;3431;47.966;10.268;2023-04-03T00:39:49;4.13;;;3.83;;
6787;SDS011;3431;47.966;10.268;2023-04-03T00:40:12;4.00;;;3.70;;
6787;SDS011;3431;47.966;10.268;2023-04-03T00:40:36;4.28;;;3.88;;
6787;SDS011;3431;47.966;10.268;2023-04-03T00:40:59;4.20;;;3.83;;
6787;SDS011;3431;47.966;10.268;2023-04-03T00:41:21;4.30;;;3.90;;
6787;SDS011;3431;47.966;10.268;2023-04-03T00:41:43;4.10;;;3.80;;
6787;SDS011;3431;47.966;10.268;2023-04-03T00:42:05;3.92;;;3.63;;
6787;SDS011;3431;47.966;10.268;2023-04-03T00:42:27;3.80;;;3.50;;
6787;SDS011;3431;47.966;10.268;2023-04-03T00:42:49;3.90;;;3.60;;
6787;SDS011;3431;47.966;10.268;2023-04-03T00:43:16;4.30;;;3.90;;
6787;SDS011;3431;47.966;10.268;2023-04-03T00:43:40;3.80;;;3.50;;
6787;SDS011;3431;47.966;10.268;2023-04-03T00:44:17;4.50;;;4.10;;
6787;SDS011;3431;47.966;10.268;2023-04-03T00:45:40;4.05;;;3.75;;
6787;SDS011;3431;47.966;10.268;2023-04-03T00:46:04;4.00;;;3.70;;
6787;SDS011;3431;47.966;10.268;2023-04-03T00:46:25;3.97;;;3.63;;
6787;SDS011;3431;47.966;10.268;2023-04-03T00:46:49;3.95;;;3.50;;
6787;SDS011;3431;47.966;10.268;2023-04-03T00:47:11;4.20;;;3.80;;
6787;SDS011;3431;47.966;10.268;2023-04-03T00:47:36;4.05;;;3.75;;
6787;SDS011;3431;47.966;10.268;2023-04-03T00:47:58;4.40;;;4.00;;
6787;SDS011;3431;47.966;10.268;2023-04-03T00:48:22;3.83;;;3.47;;
6787;SDS011;3431;47.966;10.268;2023-04-03T00:48:49;3.72;;;3.42;;
6787;SDS011;3431;47.966;10.268;2023-04-03T00:49:11;4.07;;;3.67;;
6787;SDS011;3431;47.966;10.268;2023-04-03T00:49:32;3.85;;;3.45;;
6787;SDS011;3431;47.966;10.268;2023-04-03T00:49:54;4.18;;;3.78;;
6787;SDS011;3431;47.966;10.268;2023-04-03T00:50:17;4.00;;;3.70;;
6787;SDS011;3431;47.966;10.268;2023-04-03T00:50:40;4.20;;;3.88;;
6787;SDS011;3431;47.966;10.268;2023-04-03T00:51:03;4.07;;;3.67;;
6787;SDS011;3431;47.966;10.268;2023-04-03T00:51:27;4.18;;;3.83;;
6787;SDS011;3431;47.966;10.268;2023-04-03T00:51:49;3.70;;;3.40;;
6787;SDS011;3431;47.966;10.268;2023-04-03T00:52:13;3.90;;;3.30;;
6787;SDS011;3431;47.966;10.268;2023-04-03T00:52:38;3.78;;;3.47;;
6787;SDS011;3431;47.966;10.268;2023-04-03T00:53:00;3.85;;;3.55;;
6787;SDS011;3431;47.966;10.268;2023-04-03T00:53:25;3.78;;;3.47;;
6787;SDS011;3431;47.966;10.268;2023-04-03T00:53:50;4.03;;;3.63;;
6787;SDS011;3431;47.966;10.268;2023-04-03T00:54:16;3.97;;;3.67;;
6787;SDS011;3431;47.966;10.268;2023-04-03T00:54:40;4.15;;;3.80;;
6787;SDS011;3431;47.966;10.268;2023-04-03T00:55:04;4.20;;;3.83;;
6787;SDS011;3431;47.966;10.268;2023-04-03T00:55:28;3.72;;;3.42;;
6787;SDS011;3431;47.966;10.268;2023-04-03T00:55:51;3.67;;;3.38;;
6787;SDS011;3431;47.966;10.268;2023-04-03T00:56:17;4.03;;;3.72;;
6787;SDS011;3431;47.966;10.268;2023-04-03T00:56:42;4.13;;;3.83;;
6787;SDS011;3431;47.966;10.268;2023-04-03T00:57:05;3.83;;;3.53;;
6787;SDS011;3431;47.966;10.268;2023-04-03T00:57:28;3.90;;;3.60;;
6787;SDS011;3431;47.966;10.268;2023-04-03T00:57:52;4.30;;;3.92;;
6787;SDS011;3431;47.966;10.268;2023-04-03T00:58:16;4.13;;;3.72;;
6787;SDS011;3431;47.966;10.268;2023-04-03T00:58:41;3.92;;;3.63;;
6787;SDS011;3431;47.966;10.268;2023-04-03T00:59:11;4.00;;;3.65;;
6787;SDS011;3431;47.966;10.268;2023-04-03T00:59:36;3.88;;;3.58;;
6787;SDS011;3431;47.966;10.268;2023-04-03T01:00:04;4.10;;;3.78;;
6787;SDS011;3431;47.966;10.268;2023-04-03T01:00:28;4.13;;;3.80;;
6787;SDS011;3431;47.966;10.268;2023-04-03T01:00:51;4.22;;;3.90;;
6787;SDS011;3431;47.966;10.268;2023-04-03T01:01:20;4.40;;;4.00;;
6787;SDS011;3431;47.966;10.268;2023-04-03T01:01:44;4.45;;;4.05;;
6787;SDS011;3431;47.966;10.268;2023-04-03T01:02:07;4.13;;;3.83;;
6787;SDS011;3431;47.966;10.268;2023-04-03T01:02:29;5.80;;;3.90;;
6787;SDS011;3431;47.966;10.268;2023-04-03T01:02:51;3.75;;;3.45;;
6787;SDS011;3431;47.966;10.268;2023-04-03T01:03:13;3.75;;;3.45;;
6787;SDS011;3431;47.966;10.268;2023-04-03T01:03:35;4.40;;;3.80;;
6787;SDS011;3431;47.966;10.268;2023-04-03T01:03:59;3.95;;;3.60;;
6787;SDS011;3431;47.966;10.268;2023-04-03T01:04:26;3.85;;;3.55;;
6787;SDS011;3431;47.966;10.268;2023-04-03T01:04:48;4.43;;;4.03;;
6787;SDS011;3431;47.966;10.268;2023-04-03T01:05:10;4.30;;;3.90;;
6787;SDS011;3431;47.966;10.268;2023-04-03T01:05:33;4.00;;;3.60;;
6787;SDS011;3431;47.966;10.268;2023-04-03T01:05:55;4.32;;;3.60;;
6787;SDS011;3431;47.966;10.268;2023-04-03T01:06:19;4.60;;;3.67;;
6787;SDS011;3431;47.966;10.268;2023-04-03T01:06:44;3.90;;;3.60;;
6787;SDS011;3431;47.966;10.268;2023-04-03T01:07:06;3.80;;;3.50;;
6787;SDS011;3431;47.966;10.268;2023-04-03T01:07:30;4.20;;;3.80;;
6787;SDS011;3431;47.966;10.268;2023-04-03T01:07:52;3.95;;;3.65;;
6787;SDS011;3431;47.966;10.268;2023-04-03T01:08:15;4.00;;;3.70;;
6787;SDS011;3431;47.966;10.268;2023-04-03T01:08:37;3.55;;;3.25;;
6787;SDS011;3431;47.966;10.268;2023-04-03T01:08:59;3.53;;;3.22;;
6787;SDS011;3431;47.966;10.268;2023-04-03T01:09:22;3.83;;;3.53;;
6787;SDS011;3431;47.966;10.268;2023-04-03T01:09:44;3.95;;;3.65;;
6787;SDS011;3431;47.966;10.268;2023-04-03T01:10:08;4.20;;;3.88;;
6787;SDS011;3431;47.966;10.268;2023-04-03T01:10:32;4.07;;;3.67;;
6787;SDS011;3431;47.966;10.268;2023-04-03T01:10:53;3.88;;;3.50;;
6787;SDS011;3431;47.966;10.268;2023-04-03T01:11:17;4.10;;;3.70;;
6787;SDS011;3431;47.966;10.268;2023-04-03T01:11:39;4.30;;;3.90;;
6787;SDS011;3431;47.966;10.268;2023-04-03T01:12:12;4.50;;;3.63;;
6787;SDS011;3431;47.966;10.268;2023-04-03T01:12:37;3.97;;;3.65;;
6787;SDS011;3431;47.966;10.268;2023-04-03T01:13:00;3.80;;;3.50;;
6787;SDS011;3431;47.966;10.268;2023-04-03T01:13:23;3.80;;;3.50;;
6787;SDS011;3431;47.966;10.268;2023-04-03T01:13:46;4.05;;;3.72;;
6787;SDS011;3431;47.966;10.268;2023-04-03T01:14:08;3.75;;;3.45;;
6787;SDS011;3431;47.966;10.268;2023-04-03T01:14:31;3.70;;;3.40;;
6787;SDS011;3431;47.966;10.268;2023-04-03T01:14:53;3.72;;;3.42;;
6787;SDS011;3431;47.966;10.268;2023-04-03T01:15:17;3.90;;;3.60;;
6787;SDS011;3431;47.966;10.268;2023-04-03T01:15:40;4.90;;;3.80;;
6787;SDS011;3431;47.966;10.268;2023-04-03T01:16:03;4.15;;;3.75;;
6787;SDS011;3431;47.966;10.268;2023-04-03T01:16:26;3.90;;;3.40;;
6787;SDS011;3431;47.966;10.268;2023-04-03T01:16:52;4.78;;;4.03;;
6787;SDS011;3431;47.966;10.268;2023-04-03T01:17:25;4.68;;;4.00;;
6787;SDS011;3431;47.966;10.268;2023-04-03T01:17:50;3.83;;;3.40;;
6787;SDS011;3431;47.966;10.268;2023-04-03T01:18:13;3.77;;;3.47;;
6787;SDS011;3431;47.966;10.268;2023-04-03T01:18:36;4.30;;;3.80;;
6787;SDS011;3431;47.966;10.268;2023-04-03T01:19:00;5.03;;;3.95;;
6787;SDS011;3431;47.966;10.268;2023-04-03T01:19:22;3.97;;;3.60;;
6787;SDS011;3431;47.966;10.268;2023-04-03T01:19:47;3.85;;;3.55;;
6787;SDS011;3431;47.966;10.268;2023-04-03T01:21:30;3.83;;;3.53;;
6787;SDS011;3431;47.966;10.268;2023-04-03T01:22:16;3.75;;;3.45;;
6787;SDS011;3431;47.966;10.268;2023-04-03T01:22:48;3.80;;;3.50;;
6787;SDS011;3431;47.966;10.268;2023-04-03T01:23:25;4.40;;;4.00;;
6787;SDS011;3431;47.966;10.268;2023-04-03T01:23:55;4.05;;;3.65;;
6787;SDS011;3431;47.966;10.268;2023-04-03T01:24:37;3.88;;;3.50;;
6787;SDS011;3431;47.966;10.268;2023-04-03T01:25:01;3.90;;;3.58;;
6787;SDS011;3431;47.966;10.268;2023-04-03T01:25:23;3.53;;;3.22;;
6787;SDS011;3431;47.966;10.268;2023-04-03T01:25:46;3.72;;;3.42;;
6787;SDS011;3431;47.966;10.268;2023-04-03T01:26:10;3.92;;;3.53;;
6787;SDS011;3431;47.966;10.268;2023-04-03T01:26:33;4.10;;;3.70;;
6787;SDS011;3431;47.966;10.268;2023-04-03T01:26:55;4.10;;;3.65;;
6787;SDS011;3431;47.966;10.268;2023-04-03T01:27:17;5.60;;;3.65;;
6787;SDS011;3431;47.966;10.268;2023-04-03T01:27:39;4.60;;;3.60;;
6787;SDS011;3431;47.966;10.268;2023-04-03T01:28:00;3.63;;;3.33;;
6787;SDS011;3431;47.966;10.268;2023-04-03T01:28:23;3.65;;;3.35;;
6787;SDS011;3431;47.966;10.268;2023-04-03T01:28:46;3.70;;;3.40;;
6787;SDS011;3431;47.966;10.268;2023-04-03T01:29:09;3.97;;;3.58;;
6787;SDS011;3431;47.966;10.268;2023-04-03T01:29:32;4.00;;;3.70;;
6787;SDS011;3431;47.966;10.268;2023-04-03T01:29:53;4.13;;;3.70;;
6787;SDS011;3431;47.966;10.268;2023-04-03T01:30:16;4.10;;;3.70;;
6787;SDS011;3431;47.966;10.268;2023-04-03T01:30:41;4.03;;;3.72;;
6787;SDS011;3431;47.966;10.268;2023-04-03T01:31:10;3.92;;;3.63;;
6787;SDS011;3431;47.966;10.268;2023-04-03T01:31:46;3.90;;;3.60;;
6787;SDS011;3431;47.966;10.268;2023-04-03T01:32:13;4.57;;;4.18;;
6787;SDS011;3431;47.966;10.268;2023-04-03T01:32:36;4.03;;;3.72;;
6787;SDS011;3431;47.966;10.268;2023-04-03T01:32:57;3.92;;;3.63;;
6787;SDS011;3431;47.966;10.268;2023-04-03T01:33:19;3.92;;;3.63;;
6787;SDS011;3431;47.966;10.268;2023-04-03T01:33:42;4.40;;;3.60;;
6787;SDS011;3431;47.966;10.268;2023-04-03T01:34:05;4.05;;;3.65;;
6787;SDS011;3431;47.966;10.268;2023-04-03T01:34:28;4.18;;;3.78;;
6787;SDS011;3431;47.966;10.268;2023-04-03T01:34:50;3.97;;;3.60;;
6787;SDS011;3431;47.966;10.268;2023-04-03T01:35:12;4.10;;;3.70;;
6787;SDS011;3431;47.966;10.268;2023-04-03T01:35:35;4.30;;;3.90;;
6787;SDS011;3431;47.966;10.268;2023-04-03T01:35:58;3.65;;;3.35;;
6787;SDS011;3431;47.966;10.268;2023-04-03T01:36:23;4.07;;;3.67;;
6787;SDS011;3431;47.966;10.268;2023-04-03T01:36:46;3.78;;;3.47;;
6787;SDS011;3431;47.966;10.268;2023-04-03T01:37:09;3.67;;;3.38;;
6787;SDS011;3431;47.966;10.268;2023-04-03T01:37:31;4.10;;;3.70;;
6787;SDS011;3431;47.966;10.268;2023-04-03T01:37:52;4.22;;;3.83;;
6787;SDS011;3431;47.966;10.268;2023-04-03T01:38:14;4.15;;;3.85;;
6787;SDS011;3431;47.966;10.268;2023-04-03T01:38:36;4.10;;;3.70;;
6787;SDS011;3431;47.966;10.268;2023-04-03T01:38:59;4.07;;;3.67;;
6787;SDS011;3431;47.966;10.268;2023-04-03T01:39:22;3.95;;;3.63;;
6787;SDS011;3431;47.966;10.268;2023-04-03T01:39:44;4.00;;;3.70;;
6787;SDS011;3431;47.966;10.268;2023-04-03T01:40:06;4.38;;;3.97;;
6787;SDS011;3431;47.966;10.268;2023-04-03T01:40:30;3.83;;;3.50;;
6787;SDS011;3431;47.966;10.268;2023-04-03T01:40:52;3.70;;;3.40;;
6787;SDS011;3431;47.966;10.268;2023-04-03T01:41:13;4.28;;;3.90;;
6787;SDS011;3431;47.966;10.268;2023-04-03T01:41:37;4.63;;;4.22;;
6787;SDS011;3431;47.966;10.268;2023-04-03T01:42:06;4.20;;;3.80;;
6787;SDS011;3431;47.966;10.268;2023-04-03T01:42:33;3.88;;;3.58;;
6787;SDS011;3431;47.966;10.268;2023-04-03T01:42:55;4.22;;;3.83;;
6787;SDS011;3431;47.966;10.268;2023-04-03T01:43:17;3.95;;;3.65;;
6787;SDS011;3431;47.966;10.268;2023-04-03T01:43:39;3.80;;;3.50;;
6787;SDS011;3431;47.966;10.268;2023-04-03T01:44:02;4.25;;;3.85;;
6787;SDS011;3431;47.966;10.268;2023-04-03T01:44:24;4.35;;;3.95;;
6787;SDS011;3431;47.966;10.268;2023-04-03T01:44:47;4.65;;;3.92;;
6787;SDS011;3431;47.966;10.268;2023-04-03T01:45:09;4.68;;;4.05;;
6787;SDS011;3431;47.966;10.268;2023-04-03T01:45:32;4.30;;;3.90;;
6787;SDS011;3431;47.966;10.268;2023-04-03T01:45:53;4.13;;;3.72;;
6787;SDS011;3431;47.966;10.268;2023-04-03T01:46:15;4.20;;;3.80;;
6787;SDS011;3431;47.966;10.268;2023-04-03T01:46:37;4.40;;;4.00;;
6787;SDS011;3431;47.966;10.268;2023-04-03T01:47:02;4.35;;;3.95;;
6787;SDS011;3431;47.966;10.268;2023-04-03T01:47:27;4.15;;;3.85;;
6787;SDS011;3431;47.966;10.268;2023-04-03T01:47:49;4.07;;;3.78;;
6787;SDS011;3431;47.966;10.268;2023-04-03T01:48:11;4.18;;;3.83;;
6787;SDS011;3431;47.966;10.268;2023-04-03T01:48:33;4.38;;;3.97;;
6787;SDS011;3431;47.966;10.268;2023-04-03T01:48:55;4.60;;;4.20;;
6787;SDS011;3431;47.966;10.268;2023-04-03T01:49:17;4.68;;;4.28;;
6787;SDS011;3431;47.966;10.268;2023-04-03T01:49:39;4.43;;;4.03;;
6787;SDS011;3431;47.966;10.268;2023-04-03T01:50:01;4.50;;;4.10;;
6787;SDS011;3431;47.966;10.268;2023-04-03T01:50:26;4.15;;;3.85;;
6787;SDS011;3431;47.966;10.268;2023-04-03T01:50:48;4.30;;;3.90;;
6787;SDS011;3431;47.966;10.268;2023-04-03T01:51:09;4.88;;;4.35;;
6787;SDS011;3431;47.966;10.268;2023-04-03T01:51:32;4.55;;;4.15;;
6787;SDS011;3431;47.966;10.268;2023-04-03T01:51:54;4.18;;;3.88;;
6787;SDS011;3431;47.966;10.268;2023-04-03T01:52:16;4.38;;;3.97;;
6787;SDS011;3431;47.966;10.268;2023-04-03T01:52:38;4.55;;;4.15;;
6787;SDS011;3431;47.966;10.268;2023-04-03T01:53:00;3.80;;;3.50;;
6787;SDS011;3431;47.966;10.268;2023-04-03T01:53:22;4.07;;;3.78;;
6787;SDS011;3431;47.966;10.268;2023-04-03T01:53:43;4.55;;;3.95;;
6787;SDS011;3431;47.966;10.268;2023-04-03T01:54:05;4.22;;;3.90;;
6787;SDS011;3431;47.966;10.268;2023-04-03T01:54:27;4.07;;;3.78;;
6787;SDS011;3431;47.966;10.268;2023-04-03T01:54:49;4.60;;;4.20;;
6787;SDS011;3431;47.966;10.268;2023-04-03T01:55:11;4.57;;;3.85;;
6787;SDS011;3431;47.966;10.268;2023-04-03T01:55:33;4.55;;;4.15;;
6787;SDS011;3431;47.966;10.268;2023-04-03T01:55:55;5.07;;;4.57;;
6787;SDS011;3431;47.966;10.268;2023-04-03T01:56:18;5.32;;;4.40;;
6787;SDS011;3431;47.966;10.268;2023-04-03T01:56:39;4.72;;;4.32;;
6787;SDS011;3431;47.966;10.268;2023-04-03T01:57:02;4.78;;;4.38;;
6787;SDS011;3431;47.966;10.268;2023-04-03T01:57:24;4.22;;;3.83;;
6787;SDS011;3431;47.966;10.268;2023-04-03T01:57:47;4.57;;;4.15;;
6787;SDS011;3431;47.966;10.268;2023-04-03T01:58:08;4.97;;;4.05;;
6787;SDS011;3431;47.966;10.268;2023-04-03T01:58:30;4.60;;;4.20;;
6787;SDS011;3431;47.966;10.268;2023-04-03T01:58:52;4.50;;;4.05;;
6787;SDS011;3431;47.966;10.268;2023-04-03T01:59:14;4.30;;;3.90;;
6787;SDS011;3431;47.966;10.268;2023-04-03T01:59:38;4.28;;;3.88;;
6787;SDS011;3431;47.966;10.268;2023-04-03T02:00:01;4.28;;;3.88;;
6787;SDS011;3431;47.966;10.268;2023-04-03T02:00:23;4.70;;;4.30;;
6787;SDS011;3431;47.966;10.268;2023-04-03T02:00:47;4.72;;;4.28;;
6787;SDS011;3431;47.966;10.268;2023-04-03T02:01:09;4.55;;;4.15;;
6787;SDS011;3431;47.966;10.268;2023-04-03T02:01:31;4.68;;;4.22;;
6787;SDS011;3431;47.966;10.268;2023-04-03T02:01:53;4.53;;;4.13;;
6787;SDS011;3431;47.966;10.268;2023-04-03T02:02:17;4.57;;;4.18;;
6787;SDS011;3431;47.966;10.268;2023-04-03T02:02:41;4.55;;;4.15;;
6787;SDS011;3431;47.966;10.268;2023-04-03T02:03:02;4.80;;;4.40;;
6787;SDS011;3431;47.966;10.268;2023-04-03T02:03:24;4.80;;;4.40;;
6787;SDS011;3431;47.966;10.268;2023-04-03T02:03:46;4.50;;;4.10;;
6787;SDS011;3431;47.966;10.268;2023-04-03T02:04:07;5.03;;;4.60;;
6787;SDS011;3431;47.966;10.268;2023-04-03T02:04:30;4.97;;;4.47;;
6787;SDS011;3431;47.966;10.268;2023-04-03T02:04:52;4.60;;;4.20;;
6787;SDS011;3431;47.966;10.268;2023-04-03T02:05:13;4.93;;;4.38;;
6787;SDS011;3431;47.966;10.268;2023-04-03T02:05:35;4.78;;;4.35;;
6787;SDS011;3431;47.966;10.268;2023-04-03T02:05:57;4.80;;;4.40;;
6787;SDS011;3431;47.966;10.268;2023-04-03T02:06:20;4.57;;;4.18;;
6787;SDS011;3431;47.966;10.268;2023-04-03T02:06:42;4.32;;;3.92;;
6787;SDS011;3431;47.966;10.268;2023-04-03T02:07:04;4.43;;;4.03;;
6787;SDS011;3431;47.966;10.268;2023-04-03T02:07:25;4.55;;;4.15;;
6787;SDS011;3431;47.966;10.268;2023-04-03T02:07:48;4.32;;;3.92;;
6787;SDS011;3431;47.966;10.268;2023-04-03T02:08:10;4.50;;;4.10;;
6787;SDS011;3431;47.966;10.268;2023-04-03T02:08:31;4.63;;;4.22;;
6787;SDS011;3431;47.966;10.268;2023-04-03T02:08:53;4.40;;;4.00;;
6787;SDS011;3431;47.966;10.268;2023-04-03T02:09:15;4.60;;;4.20;;
6787;SDS011;3431;47.966;10.268;2023-04-03T02:09:37;5.28;;;4.78;;
6787;SDS011;3431;47.966;10.268;2023-04-03T02:09:58;5.00;;;4.60;;
6787;SDS011;3431;47.966;10.268;2023-04-03T02:10:20;4.70;;;4.22;;
6787;SDS011;3431;47.966;10.268;2023-04-03T02:10:43;4.97;;;4.20;;
6787;SDS011;3431;47.966;10.268;2023-04-03T02:11:05;4.80;;;4.32;;
6787;SDS011;3431;47.966;10.268;2023-04-03T02:11:27;4.57;;;4.18;;
6787;SDS011;3431;47.966;10.268;2023-04-03T02:11:49;4.70;;;4.30;;
6787;SDS011;3431;47.966;10.268;2023-04-03T02:12:12;4.60;;;4.20;;
6787;SDS011;3431;47.966;10.268;2023-04-03T02:12:33;5.35;;;4.85;;
6787;SDS011;3431;47.966;10.268;2023-04-03T02:12:55;5.00;;;4.50;;
6787;SDS011;3431;47.966;10.268;2023-04-03T02:13:17;4.72;;;4.32;;
6787;SDS011;3431;47.966;10.268;2023-04-03T02:13:40;5.28;;;4.45;;
6787;SDS011;3431;47.966;10.268;2023-04-03T02:14:01;4.43;;;3.90;;
6787;SDS011;3431;47.966;10.268;2023-04-03T02:14:23;4.70;;;4.30;;
6787;SDS011;3431;47.966;10.268;2023-04-03T02:14:45;4.80;;;4.40;;
6787;SDS011;3431;47.966;10.268;2023-04-03T02:15:07;4.95;;;4.50;;
6787;SDS011;3431;47.966;10.268;2023-04-03T02:15:31;4.65;;;4.15;;
6787;SDS011;3431;47.966;10.268;2023-04-03T02:15:52;4.72;;;4.32;;
6787;SDS011;3431;47.966;10.268;2023-04-03T02:16:14;4.43;;;4.03;;
6787;SDS011;3431;47.966;10.268;2023-04-03T02:16:36;4.80;;;4.40;;
6787;SDS011;3431;47.966;10.268;2023-04-03T02:16:59;4.63;;;4.22;;
6787;SDS011;3431;47.966;10.268;2023-04-03T02:17:23;4.90;;;4.40;;
6787;SDS011;3431;47.966;10.268;2023-04-03T02:17:44;4.65;;;4.25;;
6787;SDS011;3431;47.966;10.268;2023-04-03T02:18:06;4.97;;;4.47;;
6787;SDS011;3431;47.966;10.268;2023-04-03T02:18:29;4.80;;;4.30;;
6787;SDS011;3431;47.966;10.268;2023-04-03T02:18:51;5.05;;;4.25;;
6787;SDS011;3431;47.966;10.268;2023-04-03T02:19:12;4.43;;;4.03;;
6787;SDS011;3431;47.966;10.268;2023-04-03T02:19:34;4.90;;;4.40;;
6787;SDS011;3431;47.966;10.268;2023-04-03T02:19:56;5.88;;;4.45;;
6787;SDS011;3431;47.966;10.268;2023-04-03T02:20:19;5.93;;;4.95;;
6787;SDS011;3431;47.966;10.268;2023-04-03T02:20:41;5.07;;;4.68;;
6787;SDS011;3431;47.966;10.268;2023-04-03T02:21:02;4.25;;;3.95;;
6787;SDS011;3431;47.966;10.268;2023-04-03T02:21:24;4.93;;;4.53;;
6787;SDS011;3431;47.966;10.268;2023-04-03T02:21:48;4.55;;;4.15;;
6787;SDS011;3431;47.966;10.268;2023-04-03T02:22:09;4.60;;;4.20;;
6787;SDS011;3431;47.966;10.268;2023-04-03T02:22:31;4.80;;;4.40;;